createdAt,value
2018-11-20T00:01:46.709Z,14.55
2018-11-20T00:04:46.190Z,13.38
2018-11-20T00:08:19.877Z,15.03
2018-11-20T00:11:06.191Z,14.80
2018-11-20T00:14:05.921Z,12.63
2018-11-20T00:16:51.638Z,14.50
2018-11-20T00:19:38.199Z,11.97
2018-11-20T00:22:40.971Z,15.45
2018-11-20T00:25:27.685Z,14.28
2018-11-20T00:28:12.703Z,13.20
2018-11-20T00:31:00.373Z,12.55
2018-11-20T00:33:46.777Z,12.85
2018-11-20T00:36:43.396Z,14.20
2018-11-20T00:39:37.101Z,12.63
2018-11-20T00:42:27.645Z,15.20
2018-11-20T00:45:18.307Z,13.95
2018-11-20T00:48:24.324Z,13.25
2018-11-20T00:51:12.001Z,15.40
2018-11-20T00:54:05.385Z,14.87
2018-11-20T00:57:04.265Z,13.80
2018-11-20T01:00:03.893Z,13.85
2018-11-20T01:02:57.298Z,14.13
2018-11-20T01:05:50.672Z,13.95
2018-11-20T01:08:47.231Z,12.43
2018-11-20T01:11:37.806Z,11.85
2018-11-20T01:14:31.765Z,11.90
2018-11-20T01:17:28.360Z,11.28
2018-11-20T01:20:25.019Z,10.38
2018-11-20T01:23:03.847Z,11.28
2018-11-20T01:25:54.425Z,11.65
2018-11-20T01:28:40.567Z,12.10
2018-11-20T01:31:26.917Z,11.25
2018-11-20T01:34:14.265Z,12.68
2018-11-20T01:37:20.517Z,10.25
2018-11-20T01:40:07.153Z,10.30
2018-11-20T01:42:51.912Z,10.38
2018-11-20T01:45:51.883Z,9.58
2018-11-20T01:48:42.292Z,8.65
2018-11-20T01:51:28.974Z,9.45
2018-11-20T01:54:28.604Z,8.90
2018-11-20T01:57:27.530Z,9.65
2018-11-20T02:00:26.991Z,9.23
2018-11-20T02:03:18.527Z,9.55
2018-11-20T02:05:54.645Z,11.10
2018-11-20T02:08:38.971Z,11.28
2018-11-20T02:11:16.590Z,10.72
2018-11-20T02:14:19.082Z,12.30
2018-11-20T02:17:09.969Z,11.15
2018-11-20T02:19:56.357Z,13.38
2018-11-20T02:22:47.271Z,11.45
2018-11-20T02:25:37.681Z,12.50
2018-11-20T02:28:24.157Z,13.58
2018-11-20T02:31:10.456Z,13.08
2018-11-20T02:34:10.091Z,13.32
2018-11-20T02:37:00.801Z,12.50
2018-11-20T02:39:47.390Z,14.43
2018-11-20T02:42:37.720Z,14.90
2018-11-20T02:45:20.590Z,14.60
2018-11-20T02:48:11.106Z,17.42
2018-11-20T02:50:55.894Z,15.45
2018-11-20T02:53:46.209Z,16.87
2018-11-20T02:56:27.317Z,17.60
2018-11-20T02:59:15.250Z,15.40
2018-11-20T03:02:16.296Z,18.15
2018-11-20T03:04:55.150Z,16.87
2018-11-20T03:07:34.975Z,19.23
2018-11-20T03:10:28.715Z,16.90
2018-11-20T03:13:25.280Z,16.17
2018-11-20T03:16:15.621Z,18.07
2018-11-20T03:19:01.884Z,17.87
2018-11-20T03:21:49.561Z,16.80
2018-11-20T03:24:36.039Z,15.48
2018-11-20T03:27:19.763Z,17.42
2018-11-20T03:31:24.798Z,17.52
2018-11-20T03:34:13.534Z,15.80
2018-11-20T03:37:16.371Z,17.02
2018-11-20T03:40:12.821Z,13.80
2018-11-20T03:42:48.826Z,16.32
2018-11-20T03:45:35.085Z,12.63
2018-11-20T03:48:28.706Z,13.28
2018-11-20T03:51:15.277Z,14.40
2018-11-20T03:54:01.928Z,13.83
2018-11-20T03:56:51.706Z,14.07
2018-11-20T04:00:02.280Z,13.78
2018-11-20T04:03:02.273Z,13.65
2018-11-20T04:05:48.968Z,13.50
2018-11-20T04:08:35.208Z,13.72
2018-11-20T04:11:21.077Z,15.00
2018-11-20T04:14:07.400Z,15.20
2018-11-20T04:17:00.972Z,14.35
2018-11-20T04:19:54.807Z,14.87
2018-11-20T04:22:45.693Z,15.00
2018-11-20T04:25:31.827Z,14.43
2018-11-20T04:28:13.215Z,14.95
2018-11-20T04:31:46.503Z,14.68
2018-11-20T04:34:36.877Z,15.03
2018-11-20T04:37:27.267Z,16.17
2018-11-20T04:40:15.193Z,17.30
2018-11-20T04:43:25.146Z,16.00
2018-11-20T04:46:08.218Z,16.50
2018-11-20T04:48:59.582Z,16.25
2018-11-20T04:51:56.586Z,16.00
2018-11-20T04:54:43.563Z,16.12
2018-11-20T04:57:29.761Z,16.23
2018-11-20T05:00:16.097Z,17.12
2018-11-20T05:03:13.370Z,14.80
2018-11-20T05:06:01.039Z,15.85
2018-11-20T05:08:54.704Z,17.25
2018-11-20T05:11:41.370Z,16.90
2018-11-20T05:14:31.712Z,16.10
2018-11-20T05:17:28.312Z,16.15
2018-11-20T05:20:15.221Z,16.12
2018-11-20T05:23:14.946Z,14.98
2018-11-20T05:26:02.663Z,14.95
2018-11-20T05:28:53.122Z,15.63
2018-11-20T05:31:39.667Z,14.63
2018-11-20T05:34:14.273Z,14.70
2018-11-20T05:37:04.643Z,14.95
2018-11-20T05:39:44.207Z,14.23
2018-11-20T05:42:50.034Z,14.75
2018-11-20T05:45:36.559Z,13.03
2018-11-20T05:48:42.636Z,14.90
2018-11-20T05:51:21.039Z,14.03
2018-11-20T05:54:01.516Z,13.88
2018-11-20T05:56:47.922Z,12.45
2018-11-20T05:59:34.676Z,12.03
2018-11-20T06:02:34.346Z,13.10
2018-11-20T06:05:34.080Z,13.08
2018-11-20T06:08:30.906Z,12.70
2018-11-20T06:11:33.838Z,13.10
2018-11-20T06:14:23.853Z,11.08
2018-11-20T06:17:10.274Z,13.08
2018-11-20T06:19:56.454Z,11.95
2018-11-20T06:22:53.301Z,11.95
2018-11-20T06:25:39.685Z,12.45
2018-11-20T06:28:33.285Z,11.95
2018-11-20T06:31:22.433Z,12.13
2018-11-20T06:34:08.967Z,12.60
2018-11-20T06:36:46.022Z,11.57
2018-11-20T06:39:38.275Z,11.22
2018-11-20T06:42:34.795Z,11.95
2018-11-20T06:45:20.966Z,11.55
2018-11-20T06:48:07.238Z,10.08
2018-11-20T06:50:57.694Z,12.30
2018-11-20T06:53:44.596Z,11.68
2018-11-20T06:56:24.975Z,11.80
2018-11-20T06:59:06.116Z,11.57
2018-11-20T07:01:53.752Z,12.47
2018-11-20T07:04:42.321Z,11.20
2018-11-20T07:07:28.893Z,12.82
2018-11-20T07:10:15.049Z,18.80
2018-11-20T07:13:08.895Z,16.67
2018-11-20T07:16:09.084Z,12.65
2018-11-20T07:19:14.776Z,13.48
2018-11-20T07:21:58.008Z,14.60
2018-11-20T07:24:44.548Z,14.23
2018-11-20T07:27:24.054Z,14.28
2018-11-20T07:30:23.804Z,15.83
2018-11-20T07:33:10.183Z,23.80
2018-11-20T07:35:56.833Z,24.65
2018-11-20T07:38:43.309Z,24.37
2018-11-20T07:41:29.493Z,22.25
2018-11-20T07:44:16.038Z,17.02
2018-11-20T07:47:03.701Z,14.60
2018-11-20T07:49:50.061Z,14.25
2018-11-20T07:52:36.461Z,14.30
2018-11-20T07:55:22.896Z,13.18
2018-11-20T07:58:10.471Z,13.13
2018-11-20T08:00:56.696Z,13.62
2018-11-20T08:03:56.469Z,37.98
2018-11-20T08:07:02.450Z,18.98
2018-11-20T08:09:55.801Z,18.48
2018-11-20T08:12:43.469Z,14.83
2018-11-20T08:15:43.477Z,13.75
2018-11-20T08:18:49.361Z,14.35
2018-11-20T08:21:45.920Z,13.78
2018-11-20T08:24:30.078Z,13.50
2018-11-20T08:27:16.629Z,14.13
2018-11-20T08:30:04.312Z,13.40
2018-11-20T08:32:50.915Z,14.10
2018-11-20T08:35:41.525Z,13.75
2018-11-20T08:38:24.118Z,14.20
2018-11-20T08:41:19.248Z,13.10
2018-11-20T08:44:05.495Z,14.38
2018-11-20T08:46:51.999Z,13.43
2018-11-20T08:49:43.361Z,12.60
2018-11-20T08:52:49.364Z,13.10
2018-11-20T08:55:35.704Z,11.85
2018-11-20T08:58:22.600Z,13.62
2018-11-20T09:01:09.039Z,13.18
2018-11-20T09:03:56.156Z,13.38
2018-11-20T09:06:42.646Z,11.43
2018-11-20T09:09:36.266Z,12.85
2018-11-20T09:12:22.883Z,13.70
2018-11-20T09:15:22.508Z,11.33
2018-11-20T09:18:15.074Z,13.62
2018-11-20T09:20:54.022Z,11.15
2018-11-20T09:23:47.810Z,12.20
2018-11-20T09:26:47.491Z,13.18
2018-11-20T09:29:53.596Z,12.58
2018-11-20T09:32:38.126Z,10.50
2018-11-20T09:35:37.948Z,12.20
2018-11-20T09:38:16.461Z,10.72
2018-11-20T09:41:04.865Z,11.40
2018-11-20T09:44:20.446Z,12.23
2018-11-20T09:47:07.212Z,13.30
2018-11-20T09:50:00.769Z,12.28
2018-11-20T09:52:47.231Z,13.80
2018-11-20T09:55:43.673Z,12.05
2018-11-20T09:58:29.902Z,10.03
2018-11-20T10:01:08.927Z,10.38
2018-11-20T10:03:56.687Z,11.43
2018-11-20T10:06:31.996Z,10.82
2018-11-20T10:09:18.750Z,10.13
2018-11-20T10:12:01.317Z,10.78
2018-11-20T10:14:38.220Z,11.12
2018-11-20T10:17:40.949Z,12.25
2018-11-20T10:20:31.684Z,10.93
2018-11-20T10:23:25.588Z,10.15
2018-11-20T10:26:22.534Z,10.60
2018-11-20T10:29:23.449Z,9.38
2018-11-20T10:32:17.026Z,8.65
2018-11-20T10:35:02.701Z,7.67
2018-11-20T10:37:50.363Z,9.00
2018-11-20T10:40:35.581Z,6.00
2018-11-20T10:43:22.090Z,7.03
2018-11-20T10:46:09.819Z,6.67
2018-11-20T10:48:57.598Z,8.90
2018-11-20T10:51:48.101Z,8.18
2018-11-20T10:54:25.606Z,6.87
2018-11-20T10:57:28.351Z,7.90
2018-11-20T11:00:15.525Z,7.00
2018-11-20T11:03:03.021Z,8.03
2018-11-20T11:05:51.546Z,7.33
2018-11-20T11:08:40.251Z,7.33
2018-11-20T11:11:45.954Z,6.28
2018-11-20T11:14:31.968Z,7.00
2018-11-20T11:17:13.246Z,6.22
2018-11-20T11:20:06.811Z,7.85
2018-11-20T11:22:49.324Z,7.78
2018-11-20T11:25:43.216Z,8.33
2018-11-20T11:28:29.906Z,7.30
2018-11-20T11:31:35.569Z,6.50
2018-11-20T11:34:22.045Z,5.95
2018-11-20T11:37:09.686Z,5.78
2018-11-20T11:39:56.326Z,5.70
2018-11-20T11:42:56.023Z,5.30
2018-11-20T11:45:43.702Z,5.37
2018-11-20T11:48:30.134Z,5.50
2018-11-20T11:51:31.607Z,6.17
2018-11-20T11:54:22.028Z,7.35
2018-11-20T11:57:09.695Z,7.40
2018-11-20T12:00:09.643Z,6.47
2018-11-20T12:05:42.810Z,6.65
2018-11-20T12:08:25.982Z,5.72
2018-11-20T12:11:19.513Z,5.15
2018-11-20T12:14:16.096Z,5.50
2018-11-20T12:17:02.400Z,5.60
2018-11-20T12:19:44.100Z,8.93
2018-11-20T12:22:38.715Z,9.70
2018-11-20T12:25:25.038Z,7.60
2018-11-20T12:28:16.789Z,8.25
2018-11-20T12:31:03.169Z,6.08
2018-11-20T12:33:53.992Z,9.65
2018-11-20T12:36:40.727Z,9.33
2018-11-20T12:39:27.577Z,11.80
2018-11-20T12:42:08.810Z,6.87
2018-11-20T12:45:02.133Z,6.58
2018-11-20T12:48:03.867Z,5.58
2018-11-20T12:50:49.665Z,5.70
2018-11-20T12:53:36.121Z,6.20
2018-11-20T12:56:26.916Z,5.67
2018-11-20T12:59:14.602Z,5.67
2018-11-20T13:02:02.259Z,5.58
2018-11-20T13:04:40.715Z,5.53
2018-11-20T13:07:40.858Z,6.37
2018-11-20T13:10:28.212Z,6.67
2018-11-20T13:13:21.568Z,4.85
2018-11-20T13:16:08.132Z,5.10
2018-11-20T13:18:54.543Z,4.43
2018-11-20T13:21:42.515Z,4.20
2018-11-20T13:24:34.258Z,4.95
2018-11-20T13:27:27.116Z,5.35
2018-11-20T13:30:22.334Z,5.40
2018-11-20T13:32:58.729Z,5.80
2018-11-20T13:35:44.812Z,5.85
2018-11-20T13:38:39.199Z,4.85
2018-11-20T13:42:05.932Z,5.90
2018-11-20T13:45:18.477Z,5.30
2018-11-20T13:48:05.414Z,5.95
2018-11-20T13:50:40.815Z,4.67
2018-11-20T13:53:27.260Z,5.40
2018-11-20T13:56:29.984Z,6.10
2018-11-20T13:59:20.147Z,5.33
2018-11-20T14:02:09.088Z,5.25
2018-11-20T14:05:14.858Z,6.08
2018-11-20T14:08:02.477Z,5.47
2018-11-20T14:11:05.196Z,5.20
2018-11-20T14:13:55.634Z,5.05
2018-11-20T14:16:42.287Z,4.75
2018-11-20T14:19:45.010Z,5.75
2018-11-20T14:22:31.345Z,5.90
2018-11-20T14:25:18.494Z,5.78
2018-11-20T14:28:14.225Z,7.35
2018-11-20T14:30:59.679Z,5.67
2018-11-20T14:33:56.228Z,5.78
2018-11-20T14:36:49.982Z,6.28
2018-11-20T14:39:46.593Z,6.22
2018-11-20T14:42:40.218Z,5.25
2018-11-20T14:45:27.850Z,6.30
2018-11-20T14:48:27.403Z,5.30
2018-11-20T14:51:05.995Z,6.30
2018-11-20T14:53:42.578Z,5.55
2018-11-20T14:56:32.939Z,6.65
2018-11-20T14:59:36.159Z,4.75
2018-11-20T15:02:38.911Z,6.30
2018-11-20T15:05:35.573Z,5.30
2018-11-20T15:08:29.741Z,5.90
2018-11-20T15:11:16.788Z,6.15
2018-11-20T15:14:03.325Z,8.75
2018-11-20T15:16:50.996Z,7.22
2018-11-20T15:19:37.338Z,7.12
2018-11-20T15:22:39.931Z,7.85
2018-11-20T15:25:18.727Z,9.18
2018-11-20T15:28:05.225Z,6.28
2018-11-20T15:30:49.489Z,6.20
2018-11-20T15:33:35.803Z,6.78
2018-11-20T15:36:32.410Z,6.17
2018-11-20T15:39:17.588Z,6.03
2018-11-20T15:42:06.866Z,6.25
2018-11-20T15:44:56.322Z,7.08
2018-11-20T15:47:42.626Z,7.10
2018-11-20T15:50:45.344Z,8.50
2018-11-20T15:53:48.124Z,7.40
2018-11-20T15:56:34.686Z,8.20
2018-11-20T15:59:29.537Z,7.40
2018-11-20T16:02:26.445Z,7.85
2018-11-20T16:05:17.117Z,7.20
2018-11-20T16:07:59.563Z,6.97
2018-11-20T16:10:53.347Z,7.60
2018-11-20T16:13:52.847Z,6.42
2018-11-20T16:16:36.077Z,7.72
2018-11-20T16:19:27.082Z,7.67
2018-11-20T16:22:19.951Z,8.30
2018-11-20T16:25:06.204Z,9.25
2018-11-20T16:27:52.680Z,9.03
2018-11-20T16:30:55.685Z,8.73
2018-11-20T16:33:44.003Z,8.53
2018-11-20T16:36:34.884Z,8.85
2018-11-20T16:39:28.497Z,8.30
2018-11-20T16:42:28.463Z,10.05
2018-11-20T16:45:28.025Z,9.40
2018-11-20T16:48:19.472Z,12.00
2018-11-20T16:51:12.883Z,9.45
2018-11-20T16:53:56.727Z,9.07
2018-11-20T16:56:42.892Z,9.87
2018-11-20T16:59:31.851Z,10.60
2018-11-20T17:02:28.967Z,10.50
2018-11-20T17:05:16.628Z,11.50
2018-11-20T17:08:03.455Z,11.15
2018-11-20T17:10:50.042Z,11.20
2018-11-20T17:13:25.512Z,10.10
2018-11-20T17:16:12.123Z,13.05
2018-11-20T17:19:03.046Z,13.15
2018-11-20T17:22:00.022Z,13.40
2018-11-20T17:24:46.482Z,12.33
2018-11-20T17:27:43.651Z,12.90
2018-11-20T17:30:30.505Z,13.80
2018-11-20T17:33:18.368Z,13.97
2018-11-20T17:36:08.962Z,13.83
2018-11-20T17:38:55.525Z,12.97
2018-11-20T17:41:45.977Z,15.33
2018-11-20T17:44:36.670Z,11.87
2018-11-20T17:47:16.940Z,12.43
2018-11-20T17:50:13.723Z,9.40
2018-11-20T17:53:04.327Z,11.33
2018-11-20T17:56:10.487Z,11.37
2018-11-20T17:58:59.799Z,12.67
2018-11-20T18:01:56.619Z,12.80
2018-11-20T18:04:42.962Z,12.00
2018-11-20T18:07:22.215Z,10.70
2018-11-20T18:10:02.689Z,9.17
2018-11-20T18:13:05.696Z,10.67
2018-11-20T18:15:52.115Z,11.93
2018-11-20T18:18:42.600Z,10.95
2018-11-20T18:21:36.364Z,10.50
2018-11-20T18:24:24.713Z,12.20
2018-11-20T18:27:14.532Z,10.70
2018-11-20T18:29:58.819Z,10.87
2018-11-20T18:32:58.649Z,11.70
2018-11-20T18:35:51.768Z,10.40
2018-11-20T18:38:48.521Z,11.47
2018-11-20T18:41:35.165Z,9.97
2018-11-20T18:44:26.243Z,11.00
2018-11-20T18:47:12.847Z,10.97
2018-11-20T18:49:56.275Z,10.67
2018-11-20T18:52:52.935Z,10.57
2018-11-20T18:55:29.172Z,10.93
2018-11-20T18:58:22.701Z,11.97
2018-11-20T19:01:09.000Z,13.35
2018-11-20T19:04:08.650Z,12.50
2018-11-20T19:06:55.294Z,14.03
2018-11-20T19:09:49.064Z,13.18
2018-11-20T19:12:42.911Z,13.35
2018-11-20T19:15:33.579Z,14.63
2018-11-20T19:18:27.566Z,13.90
2018-11-20T19:21:21.618Z,12.80
2018-11-20T19:24:24.572Z,14.03
2018-11-20T19:27:12.693Z,12.28
2018-11-20T19:30:09.696Z,12.60
2018-11-20T19:33:00.523Z,11.68
2018-11-20T19:35:57.269Z,12.18
2018-11-20T19:39:00.622Z,12.00
2018-11-20T19:42:06.887Z,12.10
2018-11-20T19:44:57.534Z,12.60
2018-11-20T19:47:56.051Z,12.33
2018-11-20T19:50:57.787Z,13.20
2018-11-20T19:53:39.431Z,12.98
2018-11-20T19:56:38.808Z,14.75
2018-11-20T19:59:28.704Z,14.90
2018-11-20T20:02:22.496Z,14.15
2018-11-20T20:05:25.624Z,13.60
2018-11-20T20:08:19.650Z,12.20
2018-11-20T20:11:13.505Z,14.43
2018-11-20T20:14:03.979Z,13.15
2018-11-20T20:16:50.360Z,13.38
2018-11-20T20:19:53.257Z,13.98
2018-11-20T20:22:39.834Z,13.98
2018-11-20T20:25:19.027Z,14.33
2018-11-20T20:28:16.464Z,13.60
2018-11-20T20:31:16.744Z,14.00
2018-11-20T20:34:03.363Z,15.15
2018-11-20T20:37:01.450Z,15.63
2018-11-20T20:39:48.424Z,17.80
2018-11-20T20:42:30.757Z,16.00
2018-11-20T20:45:17.405Z,16.35
2018-11-20T20:47:57.070Z,16.77
2018-11-20T20:50:45.911Z,15.93
2018-11-20T20:53:51.953Z,17.60
2018-11-20T20:56:39.226Z,18.60
2018-11-20T20:59:31.020Z,17.10
2018-11-20T21:02:13.467Z,16.50
2018-11-20T21:05:01.085Z,15.65
2018-11-20T21:08:04.058Z,13.85
2018-11-20T21:10:51.083Z,15.08
2018-11-20T21:13:27.879Z,15.15
2018-11-20T21:16:30.542Z,14.43
2018-11-20T21:19:27.549Z,15.43
2018-11-20T21:22:13.856Z,15.95
2018-11-20T21:25:01.284Z,14.45
2018-11-20T21:27:49.352Z,14.23
2018-11-20T21:30:45.710Z,14.83
2018-11-20T21:33:22.551Z,14.13
2018-11-20T21:36:10.311Z,14.50
2018-11-20T21:39:13.412Z,13.40
2018-11-20T21:42:04.192Z,14.80
2018-11-20T21:44:51.886Z,15.15
2018-11-20T21:47:54.643Z,14.95
2018-11-20T21:50:51.364Z,14.60
2018-11-20T21:53:37.879Z,13.30
2018-11-20T21:56:24.126Z,16.00
2018-11-20T21:59:32.903Z,15.25
2018-11-20T22:02:26.370Z,15.28
2018-11-20T22:05:12.885Z,17.80
2018-11-20T22:08:18.087Z,17.42
2018-11-20T22:11:14.240Z,14.07
2018-11-20T22:13:54.994Z,17.42
2018-11-20T22:16:51.800Z,15.35
2018-11-20T22:19:48.748Z,17.17
2018-11-20T22:22:54.755Z,15.30
2018-11-20T22:25:45.226Z,15.85
2018-11-20T22:28:27.055Z,15.32
2018-11-20T22:31:03.812Z,16.30
2018-11-20T22:33:57.316Z,14.60
2018-11-20T22:36:50.891Z,14.98
2018-11-20T22:39:29.993Z,17.10
2018-11-20T22:42:16.531Z,16.42
2018-11-20T22:45:12.988Z,17.48
2018-11-20T22:48:03.768Z,16.50
2018-11-20T22:50:48.439Z,15.85
2018-11-20T22:53:26.691Z,18.15
2018-11-20T22:56:14.366Z,18.70
2018-11-20T22:59:00.878Z,18.03
2018-11-20T23:01:54.579Z,18.07
2018-11-20T23:04:47.966Z,15.78
2018-11-20T23:07:38.590Z,16.87
2018-11-20T23:10:06.699Z,15.97
2018-11-20T23:12:34.887Z,17.20
2018-11-20T23:15:04.281Z,17.77
2018-11-20T23:17:32.388Z,18.00
2018-11-20T23:20:00.462Z,16.17
2018-11-20T23:26:35.785Z,14.55
2018-11-20T23:29:03.595Z,14.80
2018-11-20T23:31:31.687Z,17.45
2018-11-20T23:33:59.820Z,15.50
2018-11-20T23:36:27.926Z,14.38
2018-11-20T23:38:56.077Z,17.23
2018-11-20T23:41:24.175Z,17.15
2018-11-20T23:43:52.510Z,17.15
2018-11-20T23:46:20.618Z,17.10
2018-11-20T23:48:48.867Z,17.50
2018-11-20T23:51:29.475Z,19.62
2018-11-20T23:53:57.565Z,19.02
2018-11-20T23:56:25.797Z,20.25
2018-11-20T23:58:53.967Z,17.17
